sensor_id;sensor_type;location;lat;lon;timestamp;P1;durP1;ratioP1;P2;durP2;ratioP2
40757;SDS011;26462;47.384;19.218;2022-12-29T00:26:03;34.63;;;12.60;;
40757;SDS011;26462;47.384;19.218;2022-12-29T00:29:37;34.17;;;12.75;;
40757;SDS011;26462;47.384;19.218;2022-12-29T00:34:01;30.10;;;13.23;;
40757;SDS011;26462;47.384;19.218;2022-12-29T00:38:59;32.53;;;11.98;;
40757;SDS011;26462;47.384;19.218;2022-12-29T00:43:08;25.02;;;10.80;;
40757;SDS011;26462;47.384;19.218;2022-12-29T07:02:56;50.47;;;16.77;;
40757;SDS011;26462;47.384;19.218;2022-12-29T07:05:26;55.35;;;19.83;;
40757;SDS011;26462;47.384;19.218;2022-12-29T07:07:57;47.28;;;16.58;;
40757;SDS011;26462;47.384;19.218;2022-12-29T07:10:25;41.97;;;16.83;;
40757;SDS011;26462;47.384;19.218;2022-12-29T07:12:56;44.53;;;17.77;;
40757;SDS011;26462;47.384;19.218;2022-12-29T07:15:23;45.72;;;18.08;;
40757;SDS011;26462;47.384;19.218;2022-12-29T07:17:52;45.40;;;18.85;;
40757;SDS011;26462;47.384;19.218;2022-12-29T07:20:22;38.90;;;18.15;;
40757;SDS011;26462;47.384;19.218;2022-12-29T07:22:53;40.33;;;16.60;;
40757;SDS011;26462;47.384;19.218;2022-12-29T07:25:20;42.00;;;16.77;;
40757;SDS011;26462;47.384;19.218;2022-12-29T07:27:48;39.10;;;17.25;;
40757;SDS011;26462;47.384;19.218;2022-12-29T07:30:17;42.95;;;16.65;;
40757;SDS011;26462;47.384;19.218;2022-12-29T07:32:46;44.35;;;18.48;;
40757;SDS011;26462;47.384;19.218;2022-12-29T07:41:18;45.13;;;18.08;;
40757;SDS011;26462;47.384;19.218;2022-12-29T07:43:46;42.63;;;17.88;;
40757;SDS011;26462;47.384;19.218;2022-12-29T07:46:34;41.83;;;17.92;;
40757;SDS011;26462;47.384;19.218;2022-12-29T07:49:23;44.22;;;18.00;;
40757;SDS011;26462;47.384;19.218;2022-12-29T07:51:50;39.22;;;16.30;;
40757;SDS011;26462;47.384;19.218;2022-12-29T07:54:21;40.17;;;17.38;;
40757;SDS011;26462;47.384;19.218;2022-12-29T07:56:50;41.40;;;17.80;;
40757;SDS011;26462;47.384;19.218;2022-12-29T07:59:18;43.30;;;17.38;;
40757;SDS011;26462;47.384;19.218;2022-12-29T08:01:45;42.42;;;16.50;;
40757;SDS011;26462;47.384;19.218;2022-12-29T08:04:13;43.03;;;17.58;;
40757;SDS011;26462;47.384;19.218;2022-12-29T08:06:43;42.38;;;17.55;;
40757;SDS011;26462;47.384;19.218;2022-12-29T08:09:15;44.10;;;17.33;;
40757;SDS011;26462;47.384;19.218;2022-12-29T08:11:49;39.53;;;16.40;;
40757;SDS011;26462;47.384;19.218;2022-12-29T08:14:17;38.78;;;15.73;;
40757;SDS011;26462;47.384;19.218;2022-12-29T08:17:06;39.58;;;17.20;;
40757;SDS011;26462;47.384;19.218;2022-12-29T08:19:33;40.00;;;16.75;;
40757;SDS011;26462;47.384;19.218;2022-12-29T08:22:01;44.03;;;17.10;;
40757;SDS011;26462;47.384;19.218;2022-12-29T08:24:30;35.45;;;15.70;;
40757;SDS011;26462;47.384;19.218;2022-12-29T08:26:58;46.63;;;18.15;;
40757;SDS011;26462;47.384;19.218;2022-12-29T08:29:41;52.35;;;18.48;;
40757;SDS011;26462;47.384;19.218;2022-12-29T08:32:12;39.53;;;16.80;;
40757;SDS011;26462;47.384;19.218;2022-12-29T08:34:40;33.58;;;15.20;;
40757;SDS011;26462;47.384;19.218;2022-12-29T08:37:07;40.28;;;16.65;;
40757;SDS011;26462;47.384;19.218;2022-12-29T08:39:35;38.45;;;16.38;;
40757;SDS011;26462;47.384;19.218;2022-12-29T08:42:05;40.42;;;17.33;;
40757;SDS011;26462;47.384;19.218;2022-12-29T08:44:33;42.17;;;16.98;;
40757;SDS011;26462;47.384;19.218;2022-12-29T08:47:00;39.30;;;17.17;;
40757;SDS011;26462;47.384;19.218;2022-12-29T08:49:28;47.08;;;18.15;;
40757;SDS011;26462;47.384;19.218;2022-12-29T08:51:55;42.08;;;17.83;;
40757;SDS011;26462;47.384;19.218;2022-12-29T08:54:25;40.75;;;16.25;;
40757;SDS011;26462;47.384;19.218;2022-12-29T08:56:58;39.83;;;16.60;;
40757;SDS011;26462;47.384;19.218;2022-12-29T09:29:12;39.47;;;15.90;;
40757;SDS011;26462;47.384;19.218;2022-12-29T09:31:45;49.63;;;20.17;;
40757;SDS011;26462;47.384;19.218;2022-12-29T09:34:13;43.42;;;18.10;;
40757;SDS011;26462;47.384;19.218;2022-12-29T09:36:41;47.65;;;19.23;;
40757;SDS011;26462;47.384;19.218;2022-12-29T09:39:09;44.90;;;18.80;;
40757;SDS011;26462;47.384;19.218;2022-12-29T09:41:39;42.25;;;17.77;;
40757;SDS011;26462;47.384;19.218;2022-12-29T09:44:48;35.13;;;16.73;;
40757;SDS011;26462;47.384;19.218;2022-12-29T09:47:15;32.55;;;14.07;;
40757;SDS011;26462;47.384;19.218;2022-12-29T09:49:47;32.70;;;14.43;;
40757;SDS011;26462;47.384;19.218;2022-12-29T09:52:23;35.33;;;15.40;;
40757;SDS011;26462;47.384;19.218;2022-12-29T09:57:42;35.35;;;15.25;;
40757;SDS011;26462;47.384;19.218;2022-12-29T10:00:24;36.50;;;14.95;;
40757;SDS011;26462;47.384;19.218;2022-12-29T10:03:05;39.38;;;15.90;;
40757;SDS011;26462;47.384;19.218;2022-12-29T10:06:06;38.13;;;17.13;;
40757;SDS011;26462;47.384;19.218;2022-12-29T10:14:26;38.97;;;17.45;;
40757;SDS011;26462;47.384;19.218;2022-12-29T10:17:03;37.85;;;18.38;;
40757;SDS011;26462;47.384;19.218;2022-12-29T10:25:19;45.28;;;24.50;;
40757;SDS011;26462;47.384;19.218;2022-12-29T10:27:57;45.67;;;22.25;;
40757;SDS011;26462;47.384;19.218;2022-12-29T10:30:36;40.47;;;20.23;;
40757;SDS011;26462;47.384;19.218;2022-12-29T10:33:05;53.17;;;25.63;;
40757;SDS011;26462;47.384;19.218;2022-12-29T10:35:38;43.28;;;22.50;;
40757;SDS011;26462;47.384;19.218;2022-12-29T10:38:18;43.17;;;21.33;;
40757;SDS011;26462;47.384;19.218;2022-12-29T10:41:08;43.38;;;20.52;;
40757;SDS011;26462;47.384;19.218;2022-12-29T10:46:18;36.38;;;17.63;;
40757;SDS011;26462;47.384;19.218;2022-12-29T10:48:54;36.08;;;17.27;;
40757;SDS011;26462;47.384;19.218;2022-12-29T10:51:25;36.22;;;16.98;;
40757;SDS011;26462;47.384;19.218;2022-12-29T10:54:03;33.45;;;15.02;;
40757;SDS011;26462;47.384;19.218;2022-12-29T10:56:39;35.42;;;15.90;;
40757;SDS011;26462;47.384;19.218;2022-12-29T10:59:30;33.25;;;15.57;;
40757;SDS011;26462;47.384;19.218;2022-12-29T11:05:03;33.35;;;14.15;;
40757;SDS011;26462;47.384;19.218;2022-12-29T11:07:42;42.38;;;16.05;;
40757;SDS011;26462;47.384;19.218;2022-12-29T11:13:03;38.15;;;15.95;;
40757;SDS011;26462;47.384;19.218;2022-12-29T11:15:42;36.47;;;17.23;;
40757;SDS011;26462;47.384;19.218;2022-12-29T11:20:58;26.23;;;11.73;;
40757;SDS011;26462;47.384;19.218;2022-12-29T11:26:16;32.73;;;15.00;;
40757;SDS011;26462;47.384;19.218;2022-12-29T11:29:16;40.97;;;17.10;;
40757;SDS011;26462;47.384;19.218;2022-12-29T11:31:49;42.95;;;18.92;;
40757;SDS011;26462;47.384;19.218;2022-12-29T11:34:20;43.45;;;18.92;;
40757;SDS011;26462;47.384;19.218;2022-12-29T11:37:00;34.78;;;17.10;;
40757;SDS011;26462;47.384;19.218;2022-12-29T11:39:50;39.17;;;18.75;;
40757;SDS011;26462;47.384;19.218;2022-12-29T11:42:35;44.55;;;20.42;;
40757;SDS011;26462;47.384;19.218;2022-12-29T11:45:06;42.75;;;20.85;;
40757;SDS011;26462;47.384;19.218;2022-12-29T11:47:43;38.63;;;21.15;;
40757;SDS011;26462;47.384;19.218;2022-12-29T11:50:18;39.58;;;17.67;;
40757;SDS011;26462;47.384;19.218;2022-12-29T11:52:48;37.40;;;19.17;;
40757;SDS011;26462;47.384;19.218;2022-12-29T11:55:37;38.20;;;17.48;;
40757;SDS011;26462;47.384;19.218;2022-12-29T11:58:05;40.72;;;19.23;;
40757;SDS011;26462;47.384;19.218;2022-12-29T12:00:34;40.75;;;18.45;;
40757;SDS011;26462;47.384;19.218;2022-12-29T12:03:04;45.03;;;19.30;;
40757;SDS011;26462;47.384;19.218;2022-12-29T12:05:46;39.38;;;16.80;;
40757;SDS011;26462;47.384;19.218;2022-12-29T12:19:38;29.17;;;15.55;;
40757;SDS011;26462;47.384;19.218;2022-12-29T12:22:19;43.38;;;22.02;;
40757;SDS011;26462;47.384;19.218;2022-12-29T12:25:04;54.58;;;25.95;;
40757;SDS011;26462;47.384;19.218;2022-12-29T12:30:40;39.72;;;19.90;;
40757;SDS011;26462;47.384;19.218;2022-12-29T12:33:22;40.72;;;18.05;;
40757;SDS011;26462;47.384;19.218;2022-12-29T12:44:20;37.95;;;17.10;;
40757;SDS011;26462;47.384;19.218;2022-12-29T12:49:36;40.35;;;17.98;;
40757;SDS011;26462;47.384;19.218;2022-12-29T12:52:22;30.58;;;16.38;;
40757;SDS011;26462;47.384;19.218;2022-12-29T13:00:34;45.72;;;18.60;;
40757;SDS011;26462;47.384;19.218;2022-12-29T13:03:19;36.75;;;18.17;;
40757;SDS011;26462;47.384;19.218;2022-12-29T13:11:53;34.65;;;16.15;;
40757;SDS011;26462;47.384;19.218;2022-12-29T13:28:48;37.90;;;19.02;;
40757;SDS011;26462;47.384;19.218;2022-12-29T13:31:47;122.30;;;32.88;;
40757;SDS011;26462;47.384;19.218;2022-12-29T13:34:37;66.18;;;24.13;;
40757;SDS011;26462;47.384;19.218;2022-12-29T13:37:29;115.78;;;34.83;;
40757;SDS011;26462;47.384;19.218;2022-12-29T13:40:02;47.45;;;20.63;;
40757;SDS011;26462;47.384;19.218;2022-12-29T13:42:56;52.10;;;24.17;;
40757;SDS011;26462;47.384;19.218;2022-12-29T13:45:24;50.22;;;22.45;;
40757;SDS011;26462;47.384;19.218;2022-12-29T13:50:34;51.65;;;23.92;;
40757;SDS011;26462;47.384;19.218;2022-12-29T13:55:58;44.88;;;21.55;;
40757;SDS011;26462;47.384;19.218;2022-12-29T14:04:12;42.83;;;20.55;;
40757;SDS011;26462;47.384;19.218;2022-12-29T14:06:41;44.42;;;20.95;;
40757;SDS011;26462;47.384;19.218;2022-12-29T14:12:30;43.03;;;21.20;;
40757;SDS011;26462;47.384;19.218;2022-12-29T14:17:45;55.35;;;23.45;;
40757;SDS011;26462;47.384;19.218;2022-12-29T14:20:36;54.63;;;23.10;;
40757;SDS011;26462;47.384;19.218;2022-12-29T14:28:27;51.45;;;21.95;;
40757;SDS011;26462;47.384;19.218;2022-12-29T14:31:02;52.55;;;24.25;;
40757;SDS011;26462;47.384;19.218;2022-12-29T14:33:33;54.75;;;24.83;;
40757;SDS011;26462;47.384;19.218;2022-12-29T14:39:01;50.15;;;21.50;;
40757;SDS011;26462;47.384;19.218;2022-12-29T14:41:36;47.63;;;22.58;;
40757;SDS011;26462;47.384;19.218;2022-12-29T14:44:11;50.53;;;22.50;;
40757;SDS011;26462;47.384;19.218;2022-12-29T14:46:49;50.15;;;22.48;;
40757;SDS011;26462;47.384;19.218;2022-12-29T14:49:24;53.33;;;24.10;;
40757;SDS011;26462;47.384;19.218;2022-12-29T14:52:06;48.05;;;22.90;;
40757;SDS011;26462;47.384;19.218;2022-12-29T14:57:44;53.60;;;25.00;;
40757;SDS011;26462;47.384;19.218;2022-12-29T15:00:22;62.13;;;28.30;;
40757;SDS011;26462;47.384;19.218;2022-12-29T15:03:04;60.38;;;27.85;;
40757;SDS011;26462;47.384;19.218;2022-12-29T15:08:16;54.22;;;26.13;;
40757;SDS011;26462;47.384;19.218;2022-12-29T15:10:53;56.15;;;27.77;;
40757;SDS011;26462;47.384;19.218;2022-12-29T15:13:33;53.92;;;25.73;;
40757;SDS011;26462;47.384;19.218;2022-12-29T15:16:02;59.22;;;25.60;;
40757;SDS011;26462;47.384;19.218;2022-12-29T15:18:34;61.75;;;25.60;;
40757;SDS011;26462;47.384;19.218;2022-12-29T15:21:02;47.25;;;22.88;;
40757;SDS011;26462;47.384;19.218;2022-12-29T15:23:32;54.35;;;23.60;;
40757;SDS011;26462;47.384;19.218;2022-12-29T15:26:04;57.38;;;25.23;;
40757;SDS011;26462;47.384;19.218;2022-12-29T15:28:43;53.45;;;22.77;;
40757;SDS011;26462;47.384;19.218;2022-12-29T15:31:13;60.70;;;27.80;;
40757;SDS011;26462;47.384;19.218;2022-12-29T15:33:43;74.93;;;30.67;;
40757;SDS011;26462;47.384;19.218;2022-12-29T15:36:18;82.93;;;40.07;;
40757;SDS011;26462;47.384;19.218;2022-12-29T15:41:56;113.50;;;50.53;;
40757;SDS011;26462;47.384;19.218;2022-12-29T15:44:38;96.03;;;44.50;;
40757;SDS011;26462;47.384;19.218;2022-12-29T15:50:02;78.28;;;35.45;;
40757;SDS011;26462;47.384;19.218;2022-12-29T15:52:33;114.80;;;50.45;;
40757;SDS011;26462;47.384;19.218;2022-12-29T15:55:01;121.63;;;55.72;;
40757;SDS011;26462;47.384;19.218;2022-12-29T15:57:41;105.68;;;45.88;;
40757;SDS011;26462;47.384;19.218;2022-12-29T16:00:29;106.57;;;44.00;;
40757;SDS011;26462;47.384;19.218;2022-12-29T16:03:03;105.18;;;44.03;;
40757;SDS011;26462;47.384;19.218;2022-12-29T16:05:39;98.13;;;41.10;;
40757;SDS011;26462;47.384;19.218;2022-12-29T16:11:07;76.85;;;33.97;;
40757;SDS011;26462;47.384;19.218;2022-12-29T16:13:44;92.30;;;36.40;;
40757;SDS011;26462;47.384;19.218;2022-12-29T16:16:13;81.57;;;35.33;;
40757;SDS011;26462;47.384;19.218;2022-12-29T16:18:49;88.70;;;34.08;;
40757;SDS011;26462;47.384;19.218;2022-12-29T16:21:27;120.95;;;43.58;;
40757;SDS011;26462;47.384;19.218;2022-12-29T16:24:01;102.43;;;37.20;;
40757;SDS011;26462;47.384;19.218;2022-12-29T16:26:33;111.68;;;41.50;;
40757;SDS011;26462;47.384;19.218;2022-12-29T16:29:01;100.05;;;40.72;;
40757;SDS011;26462;47.384;19.218;2022-12-29T16:31:49;86.40;;;37.10;;
40757;SDS011;26462;47.384;19.218;2022-12-29T16:34:23;73.35;;;31.20;;
40757;SDS011;26462;47.384;19.218;2022-12-29T16:36:53;85.15;;;36.28;;
40757;SDS011;26462;47.384;19.218;2022-12-29T16:39:27;99.82;;;40.55;;
40757;SDS011;26462;47.384;19.218;2022-12-29T16:41:55;113.45;;;41.17;;
40757;SDS011;26462;47.384;19.218;2022-12-29T16:44:28;100.97;;;39.15;;
40757;SDS011;26462;47.384;19.218;2022-12-29T16:49:39;83.25;;;33.33;;
40757;SDS011;26462;47.384;19.218;2022-12-29T16:52:13;95.18;;;34.72;;
40757;SDS011;26462;47.384;19.218;2022-12-29T16:54:50;104.75;;;39.33;;
40757;SDS011;26462;47.384;19.218;2022-12-29T16:57:25;102.90;;;38.17;;
40757;SDS011;26462;47.384;19.218;2022-12-29T16:59:59;103.68;;;39.72;;
40757;SDS011;26462;47.384;19.218;2022-12-29T17:02:30;95.20;;;38.78;;
40757;SDS011;26462;47.384;19.218;2022-12-29T17:05:01;124.82;;;45.95;;
40757;SDS011;26462;47.384;19.218;2022-12-29T17:07:29;91.75;;;38.75;;
40757;SDS011;26462;47.384;19.218;2022-12-29T17:09:59;111.72;;;42.75;;
40757;SDS011;26462;47.384;19.218;2022-12-29T17:12:27;123.20;;;44.47;;
40757;SDS011;26462;47.384;19.218;2022-12-29T17:14:56;114.72;;;45.05;;
40757;SDS011;26462;47.384;19.218;2022-12-29T17:17:33;102.80;;;42.97;;
40757;SDS011;26462;47.384;19.218;2022-12-29T17:20:05;118.63;;;44.92;;
40757;SDS011;26462;47.384;19.218;2022-12-29T17:22:41;132.40;;;49.33;;
40757;SDS011;26462;47.384;19.218;2022-12-29T17:25:16;119.18;;;47.90;;
40757;SDS011;26462;47.384;19.218;2022-12-29T17:27:53;117.88;;;45.38;;
40757;SDS011;26462;47.384;19.218;2022-12-29T17:30:26;105.72;;;40.47;;
40757;SDS011;26462;47.384;19.218;2022-12-29T17:33:06;93.40;;;38.22;;
40757;SDS011;26462;47.384;19.218;2022-12-29T17:35:38;93.80;;;37.28;;
40757;SDS011;26462;47.384;19.218;2022-12-29T17:38:19;97.63;;;37.42;;
40757;SDS011;26462;47.384;19.218;2022-12-29T17:40:49;90.97;;;35.00;;
40757;SDS011;26462;47.384;19.218;2022-12-29T17:43:20;95.22;;;38.70;;
40757;SDS011;26462;47.384;19.218;2022-12-29T17:45:53;97.63;;;41.75;;
40757;SDS011;26462;47.384;19.218;2022-12-29T17:48:23;141.98;;;49.25;;
40757;SDS011;26462;47.384;19.218;2022-12-29T17:50:51;139.27;;;49.67;;
40757;SDS011;26462;47.384;19.218;2022-12-29T17:53:23;141.02;;;52.15;;
40757;SDS011;26462;47.384;19.218;2022-12-29T17:55:54;125.75;;;48.03;;
40757;SDS011;26462;47.384;19.218;2022-12-29T17:58:22;112.40;;;45.45;;
40757;SDS011;26462;47.384;19.218;2022-12-29T18:00:53;122.18;;;45.65;;
40757;SDS011;26462;47.384;19.218;2022-12-29T18:03:23;140.05;;;52.33;;
40757;SDS011;26462;47.384;19.218;2022-12-29T18:06:03;102.97;;;39.90;;
40757;SDS011;26462;47.384;19.218;2022-12-29T18:08:34;112.70;;;43.35;;
40757;SDS011;26462;47.384;19.218;2022-12-29T18:11:02;88.72;;;35.20;;
40757;SDS011;26462;47.384;19.218;2022-12-29T18:13:30;84.47;;;34.35;;
40757;SDS011;26462;47.384;19.218;2022-12-29T18:16:12;77.15;;;33.45;;
40757;SDS011;26462;47.384;19.218;2022-12-29T18:18:40;83.05;;;35.63;;
40757;SDS011;26462;47.384;19.218;2022-12-29T18:21:13;71.68;;;31.90;;
40757;SDS011;26462;47.384;19.218;2022-12-29T18:23:45;81.63;;;32.35;;
40757;SDS011;26462;47.384;19.218;2022-12-29T18:26:24;86.50;;;33.95;;
40757;SDS011;26462;47.384;19.218;2022-12-29T18:29:03;96.88;;;37.22;;
40757;SDS011;26462;47.384;19.218;2022-12-29T18:31:31;95.53;;;35.92;;
40757;SDS011;26462;47.384;19.218;2022-12-29T18:34:00;106.80;;;38.65;;
40757;SDS011;26462;47.384;19.218;2022-12-29T18:36:33;98.38;;;40.50;;
40757;SDS011;26462;47.384;19.218;2022-12-29T18:39:00;98.38;;;39.38;;
40757;SDS011;26462;47.384;19.218;2022-12-29T18:41:31;82.10;;;35.33;;
40757;SDS011;26462;47.384;19.218;2022-12-29T18:43:58;95.10;;;37.08;;
40757;SDS011;26462;47.384;19.218;2022-12-29T18:46:26;108.95;;;39.75;;
40757;SDS011;26462;47.384;19.218;2022-12-29T18:48:57;98.97;;;38.88;;
40757;SDS011;26462;47.384;19.218;2022-12-29T18:51:28;105.57;;;39.60;;
40757;SDS011;26462;47.384;19.218;2022-12-29T18:53:59;118.15;;;42.15;;
40757;SDS011;26462;47.384;19.218;2022-12-29T18:56:27;122.85;;;50.17;;
40757;SDS011;26462;47.384;19.218;2022-12-29T18:58:54;116.40;;;44.50;;
40757;SDS011;26462;47.384;19.218;2022-12-29T19:01:25;90.88;;;37.10;;
40757;SDS011;26462;47.384;19.218;2022-12-29T19:03:54;96.63;;;37.95;;
40757;SDS011;26462;47.384;19.218;2022-12-29T19:06:21;94.55;;;36.45;;
40757;SDS011;26462;47.384;19.218;2022-12-29T19:08:51;100.03;;;37.95;;
40757;SDS011;26462;47.384;19.218;2022-12-29T19:11:18;94.15;;;37.30;;
40757;SDS011;26462;47.384;19.218;2022-12-29T19:13:46;97.03;;;36.65;;
40757;SDS011;26462;47.384;19.218;2022-12-29T19:16:18;85.45;;;36.17;;
40757;SDS011;26462;47.384;19.218;2022-12-29T19:18:46;102.32;;;39.63;;
40757;SDS011;26462;47.384;19.218;2022-12-29T19:21:33;121.68;;;43.45;;
40757;SDS011;26462;47.384;19.218;2022-12-29T19:24:02;121.97;;;44.30;;
40757;SDS011;26462;47.384;19.218;2022-12-29T19:26:30;101.55;;;40.67;;
40757;SDS011;26462;47.384;19.218;2022-12-29T19:29:00;99.65;;;39.05;;
40757;SDS011;26462;47.384;19.218;2022-12-29T19:31:28;98.35;;;39.08;;
40757;SDS011;26462;47.384;19.218;2022-12-29T19:33:55;105.93;;;41.88;;
40757;SDS011;26462;47.384;19.218;2022-12-29T19:36:23;125.95;;;50.53;;
40757;SDS011;26462;47.384;19.218;2022-12-29T19:38:50;121.32;;;46.90;;
40757;SDS011;26462;47.384;19.218;2022-12-29T19:41:21;115.05;;;46.67;;
40757;SDS011;26462;47.384;19.218;2022-12-29T19:43:50;116.25;;;46.40;;
40757;SDS011;26462;47.384;19.218;2022-12-29T19:46:18;128.57;;;51.05;;
40757;SDS011;26462;47.384;19.218;2022-12-29T19:48:46;123.65;;;48.65;;
40757;SDS011;26462;47.384;19.218;2022-12-29T19:51:16;123.45;;;47.08;;
40757;SDS011;26462;47.384;19.218;2022-12-29T19:53:44;123.10;;;50.83;;
40757;SDS011;26462;47.384;19.218;2022-12-29T19:56:12;127.20;;;48.15;;
40757;SDS011;26462;47.384;19.218;2022-12-29T19:58:43;120.07;;;45.25;;
40757;SDS011;26462;47.384;19.218;2022-12-29T20:01:17;116.00;;;44.67;;
40757;SDS011;26462;47.384;19.218;2022-12-29T20:03:47;125.85;;;45.67;;
40757;SDS011;26462;47.384;19.218;2022-12-29T20:06:16;119.47;;;46.88;;
40757;SDS011;26462;47.384;19.218;2022-12-29T20:08:46;153.45;;;54.65;;
40757;SDS011;26462;47.384;19.218;2022-12-29T20:11:15;145.32;;;54.38;;
40757;SDS011;26462;47.384;19.218;2022-12-29T20:13:44;142.93;;;55.92;;
40757;SDS011;26462;47.384;19.218;2022-12-29T20:16:13;141.80;;;48.75;;
40757;SDS011;26462;47.384;19.218;2022-12-29T20:18:43;125.78;;;49.20;;
40757;SDS011;26462;47.384;19.218;2022-12-29T20:21:12;126.43;;;48.25;;
40757;SDS011;26462;47.384;19.218;2022-12-29T20:23:42;117.20;;;45.75;;
40757;SDS011;26462;47.384;19.218;2022-12-29T20:26:14;113.15;;;45.25;;
40757;SDS011;26462;47.384;19.218;2022-12-29T20:28:44;114.97;;;44.03;;
40757;SDS011;26462;47.384;19.218;2022-12-29T20:31:14;109.15;;;42.72;;
40757;SDS011;26462;47.384;19.218;2022-12-29T20:33:52;103.47;;;39.90;;
40757;SDS011;26462;47.384;19.218;2022-12-29T20:36:20;116.00;;;42.28;;
40757;SDS011;26462;47.384;19.218;2022-12-29T20:38:51;108.88;;;42.28;;
40757;SDS011;26462;47.384;19.218;2022-12-29T20:41:20;108.18;;;39.00;;
40757;SDS011;26462;47.384;19.218;2022-12-29T20:43:48;101.38;;;40.65;;
40757;SDS011;26462;47.384;19.218;2022-12-29T20:46:16;104.90;;;41.55;;
40757;SDS011;26462;47.384;19.218;2022-12-29T20:48:48;121.45;;;45.58;;
40757;SDS011;26462;47.384;19.218;2022-12-29T20:51:16;127.38;;;47.97;;
40757;SDS011;26462;47.384;19.218;2022-12-29T20:53:44;131.07;;;47.35;;
40757;SDS011;26462;47.384;19.218;2022-12-29T20:56:13;128.48;;;46.72;;
40757;SDS011;26462;47.384;19.218;2022-12-29T20:58:46;110.70;;;41.08;;
40757;SDS011;26462;47.384;19.218;2022-12-29T21:01:34;107.85;;;42.00;;
40757;SDS011;26462;47.384;19.218;2022-12-29T21:04:05;105.93;;;42.45;;
40757;SDS011;26462;47.384;19.218;2022-12-29T21:06:34;111.97;;;43.00;;
40757;SDS011;26462;47.384;19.218;2022-12-29T21:09:02;81.07;;;31.92;;
40757;SDS011;26462;47.384;19.218;2022-12-29T21:11:30;103.47;;;37.80;;
40757;SDS011;26462;47.384;19.218;2022-12-29T21:13:57;98.70;;;36.55;;
40757;SDS011;26462;47.384;19.218;2022-12-29T21:16:27;97.97;;;33.90;;
40757;SDS011;26462;47.384;19.218;2022-12-29T21:18:55;96.63;;;36.83;;
40757;SDS011;26462;47.384;19.218;2022-12-29T21:21:23;107.22;;;37.55;;
40757;SDS011;26462;47.384;19.218;2022-12-29T21:23:53;99.65;;;35.88;;
40757;SDS011;26462;47.384;19.218;2022-12-29T21:26:22;96.80;;;36.08;;
40757;SDS011;26462;47.384;19.218;2022-12-29T21:28:52;105.53;;;36.95;;
40757;SDS011;26462;47.384;19.218;2022-12-29T21:31:24;89.25;;;34.05;;
40757;SDS011;26462;47.384;19.218;2022-12-29T21:33:54;93.70;;;34.92;;
40757;SDS011;26462;47.384;19.218;2022-12-29T21:36:23;102.07;;;34.65;;
40757;SDS011;26462;47.384;19.218;2022-12-29T21:38:53;93.38;;;32.58;;
40757;SDS011;26462;47.384;19.218;2022-12-29T21:41:22;87.88;;;33.97;;
40757;SDS011;26462;47.384;19.218;2022-12-29T21:43:50;82.32;;;33.00;;
40757;SDS011;26462;47.384;19.218;2022-12-29T21:46:37;81.25;;;32.67;;
40757;SDS011;26462;47.384;19.218;2022-12-29T21:49:06;84.28;;;33.05;;
40757;SDS011;26462;47.384;19.218;2022-12-29T21:51:34;76.40;;;31.33;;
40757;SDS011;26462;47.384;19.218;2022-12-29T21:54:22;78.50;;;30.95;;
40757;SDS011;26462;47.384;19.218;2022-12-29T21:57:12;80.70;;;31.98;;
40757;SDS011;26462;47.384;19.218;2022-12-29T22:00:04;69.80;;;27.90;;
40757;SDS011;26462;47.384;19.218;2022-12-29T22:02:52;70.53;;;28.73;;
40757;SDS011;26462;47.384;19.218;2022-12-29T22:05:48;73.63;;;29.00;;
40757;SDS011;26462;47.384;19.218;2022-12-29T22:08:35;67.18;;;28.63;;
40757;SDS011;26462;47.384;19.218;2022-12-29T22:11:21;76.57;;;33.30;;
40757;SDS011;26462;47.384;19.218;2022-12-29T22:14:07;78.57;;;30.42;;
40757;SDS011;26462;47.384;19.218;2022-12-29T22:16:38;79.13;;;30.45;;
40757;SDS011;26462;47.384;19.218;2022-12-29T22:19:05;77.47;;;29.63;;
40757;SDS011;26462;47.384;19.218;2022-12-29T22:21:34;90.82;;;34.10;;
40757;SDS011;26462;47.384;19.218;2022-12-29T22:24:04;93.50;;;35.15;;
40757;SDS011;26462;47.384;19.218;2022-12-29T22:26:31;109.28;;;37.75;;
40757;SDS011;26462;47.384;19.218;2022-12-29T22:28:59;83.00;;;32.65;;
40757;SDS011;26462;47.384;19.218;2022-12-29T22:31:27;89.50;;;33.58;;
40757;SDS011;26462;47.384;19.218;2022-12-29T22:33:56;85.03;;;34.17;;
40757;SDS011;26462;47.384;19.218;2022-12-29T22:36:24;72.32;;;29.08;;
40757;SDS011;26462;47.384;19.218;2022-12-29T22:38:52;74.10;;;30.42;;
40757;SDS011;26462;47.384;19.218;2022-12-29T22:41:20;99.60;;;33.50;;
40757;SDS011;26462;47.384;19.218;2022-12-29T22:43:48;108.47;;;38.92;;
40757;SDS011;26462;47.384;19.218;2022-12-29T22:46:18;126.32;;;37.15;;
40757;SDS011;26462;47.384;19.218;2022-12-29T22:48:45;117.88;;;36.70;;
40757;SDS011;26462;47.384;19.218;2022-12-29T22:51:16;98.20;;;33.88;;
40757;SDS011;26462;47.384;19.218;2022-12-29T22:53:49;80.55;;;32.15;;
40757;SDS011;26462;47.384;19.218;2022-12-29T22:56:17;72.68;;;29.88;;
40757;SDS011;26462;47.384;19.218;2022-12-29T22:58:45;77.82;;;30.65;;
40757;SDS011;26462;47.384;19.218;2022-12-29T23:01:14;68.82;;;27.25;;
40757;SDS011;26462;47.384;19.218;2022-12-29T23:03:43;74.60;;;27.95;;
40757;SDS011;26462;47.384;19.218;2022-12-29T23:06:11;68.05;;;26.88;;
40757;SDS011;26462;47.384;19.218;2022-12-29T23:08:42;71.50;;;26.60;;
40757;SDS011;26462;47.384;19.218;2022-12-29T23:11:10;68.38;;;27.60;;
40757;SDS011;26462;47.384;19.218;2022-12-29T23:27:45;61.83;;;24.08;;
40757;SDS011;26462;47.384;19.218;2022-12-29T23:30:13;64.28;;;22.80;;
40757;SDS011;26462;47.384;19.218;2022-12-29T23:32:41;71.93;;;26.00;;
40757;SDS011;26462;47.384;19.218;2022-12-29T23:35:08;71.05;;;27.33;;
40757;SDS011;26462;47.384;19.218;2022-12-29T23:37:36;72.95;;;29.30;;
40757;SDS011;26462;47.384;19.218;2022-12-29T23:40:03;78.63;;;28.45;;
40757;SDS011;26462;47.384;19.218;2022-12-29T23:42:32;77.03;;;29.15;;
40757;SDS011;26462;47.384;19.218;2022-12-29T23:44:59;72.43;;;31.88;;
40757;SDS011;26462;47.384;19.218;2022-12-29T23:47:27;76.45;;;28.95;;
40757;SDS011;26462;47.384;19.218;2022-12-29T23:49:54;72.57;;;27.83;;
40757;SDS011;26462;47.384;19.218;2022-12-29T23:52:22;65.25;;;26.02;;
40757;SDS011;26462;47.384;19.218;2022-12-29T23:54:49;72.00;;;26.08;;
40757;SDS011;26462;47.384;19.218;2022-12-29T23:57:19;73.00;;;27.13;;
40757;SDS011;26462;47.384;19.218;2022-12-29T23:59:47;79.15;;;29.50;;
